Time;durP1;ratioP1;P1;durP2;ratioP2;P2;SDS_P1;SDS_P2;PMS_P1;PMS_P2;Temp;Humidity;BMP_temperature;BMP_pressure;BME280_temperature;BME280_humidity;BME280_pressure;Samples;Min_cycle;Max_cycle;Signal;HPM_P1;HPM_P2
2023/04/08 00:00:20;;;;;;;54.42;16.05;;;;;;;;;;5053489;28;20511;-50
2023/04/08 00:02:47;;;;;;;50.20;15.55;;;;;;;;;;5050827;28;20053;-51
2023/04/08 00:05:13;;;;;;;54.88;16.17;;;;;;;;;;5057027;28;20140;-53
2023/04/08 00:07:40;;;;;;;34.65;16.10;;;;;;;;;;5065589;28;20536;-57
2023/04/08 00:10:06;;;;;;;76.57;17.95;;;;;;;;;;5053586;28;20056;-53
2023/04/08 00:12:33;;;;;;;46.58;16.15;;;;;;;;;;5059945;28;20049;-52
2023/04/08 00:14:59;;;;;;;49.63;15.73;;;;;;;;;;5046089;28;20504;-52
2023/04/08 00:17:25;;;;;;;62.85;14.65;;;;;;;;;;5047773;28;20049;-53
2023/04/08 00:19:52;;;;;;;43.42;13.20;;;;;;;;;;5057453;28;20049;-54
2023/04/08 00:22:18;;;;;;;48.10;13.85;;;;;;;;;;5045344;28;20061;-53
2023/04/08 00:24:44;;;;;;;36.03;13.63;;;;;;;;;;5050723;28;20045;-54
2023/04/08 00:27:11;;;;;;;45.97;13.25;;;;;;;;;;5050123;28;20065;-53
2023/04/08 00:29:37;;;;;;;48.80;13.07;;;;;;;;;;5045900;28;20212;-56
2023/04/08 00:32:03;;;;;;;42.88;14.77;;;;;;;;;;5059769;28;20412;-55
2023/04/08 00:34:30;;;;;;;46.15;14.10;;;;;;;;;;5061788;28;20144;-54
2023/04/08 00:36:56;;;;;;;55.97;13.55;;;;;;;;;;5045400;28;20558;-52
2023/04/08 00:39:22;;;;;;;57.95;13.43;;;;;;;;;;5050188;28;20541;-53
2023/04/08 00:41:49;;;;;;;72.28;14.02;;;;;;;;;;5061729;28;20057;-54
2023/04/08 00:44:15;;;;;;;51.00;12.80;;;;;;;;;;5045286;28;20922;-53
2023/04/08 00:46:42;;;;;;;41.80;12.05;;;;;;;;;;5057822;28;20692;-54
2023/04/08 00:49:08;;;;;;;104.82;15.57;;;;;;;;;;5058573;28;20088;-53
2023/04/08 00:51:35;;;;;;;64.95;14.57;;;;;;;;;;5048282;28;20120;-52
2023/04/08 00:54:03;;;;;;;44.10;12.23;;;;;;;;;;5048670;28;20055;-53
2023/04/08 00:56:31;;;;;;;87.35;14.23;;;;;;;;;;5057945;28;20049;-53
2023/04/08 00:58:58;;;;;;;63.95;15.25;;;;;;;;;;5054257;28;20059;-55
2023/04/08 01:01:46;;;;;;;56.13;13.13;;;;;;;;;;5056415;28;20060;-55
2023/04/08 01:04:15;;;;;;;39.55;12.57;;;;;;;;;;5068854;28;20055;-54
2023/04/08 01:06:49;;;;;;;74.20;13.60;;;;;;;;;;5062587;28;20056;-56
2023/04/08 01:09:17;;;;;;;81.93;14.63;;;;;;;;;;5054457;28;20086;-56
2023/04/08 01:11:45;;;;;;;37.85;12.57;;;;;;;;;;5064731;28;20056;-55
2023/04/08 01:14:16;;;;;;;57.90;14.82;;;;;;;;;;5054109;28;20061;-54
2023/04/08 01:16:42;;;;;;;63.95;14.30;;;;;;;;;;5049464;28;20057;-53
2023/04/08 01:19:13;;;;;;;51.53;12.70;;;;;;;;;;5062829;28;20051;-54
2023/04/08 01:21:40;;;;;;;81.88;16.08;;;;;;;;;;5046983;28;20092;-53
2023/04/08 01:24:10;;;;;;;77.80;15.30;;;;;;;;;;5053700;28;20134;-54
2023/04/08 01:26:37;;;;;;;54.05;14.68;;;;;;;;;;5055106;28;20111;-55
2023/04/08 01:29:04;;;;;;;58.00;15.27;;;;;;;;;;5057962;28;20137;-53
2023/04/08 01:31:31;;;;;;;91.93;14.90;;;;;;;;;;5050160;28;20052;-53
2023/04/08 01:34:00;;;;;;;76.07;14.70;;;;;;;;;;5061958;28;20537;-55
2023/04/08 01:36:27;;;;;;;116.53;17.33;;;;;;;;;;5063813;28;20088;-54
2023/04/08 01:38:54;;;;;;;31.15;13.38;;;;;;;;;;5067823;28;20049;-54
2023/04/08 01:41:20;;;;;;;47.30;12.95;;;;;;;;;;5067795;28;20530;-55
2023/04/08 01:43:47;;;;;;;65.75;13.63;;;;;;;;;;5060369;28;20053;-53
2023/04/08 01:46:14;;;;;;;54.42;12.48;;;;;;;;;;5067973;28;20041;-54
2023/04/08 01:48:40;;;;;;;52.30;11.07;;;;;;;;;;5055186;28;20053;-52
2023/04/08 01:51:08;;;;;;;69.20;13.90;;;;;;;;;;5062482;28;20771;-53
2023/04/08 01:53:34;;;;;;;152.38;17.52;;;;;;;;;;5067855;28;20052;-54
2023/04/08 01:56:03;;;;;;;123.10;15.23;;;;;;;;;;5083128;28;20106;-52
2023/04/08 01:58:31;;;;;;;116.72;14.90;;;;;;;;;;5054331;28;20057;-56
2023/04/08 02:00:58;;;;;;;117.05;16.33;;;;;;;;;;5048552;28;20145;-52
2023/04/08 02:03:26;;;;;;;122.38;15.93;;;;;;;;;;5068798;28;20059;-55
2023/04/08 02:05:53;;;;;;;47.20;13.45;;;;;;;;;;5061551;28;20046;-55
2023/04/08 02:08:19;;;;;;;69.20;14.63;;;;;;;;;;5056973;28;20057;-55
2023/04/08 02:10:46;;;;;;;62.08;13.77;;;;;;;;;;5066295;28;20057;-56
2023/04/08 02:13:12;;;;;;;87.45;15.55;;;;;;;;;;5051460;28;20088;-54
2023/04/08 02:15:41;;;;;;;121.10;18.77;;;;;;;;;;5063730;28;20557;-52
2023/04/08 02:18:10;;;;;;;49.05;13.25;;;;;;;;;;5047424;28;20057;-54
2023/04/08 02:20:38;;;;;;;65.47;12.50;;;;;;;;;;5075939;28;20053;-54
2023/04/08 02:23:08;;;;;;;65.70;15.98;;;;;;;;;;5052117;28;20060;-54
2023/04/08 02:25:36;;;;;;;97.35;16.70;;;;;;;;;;5049336;28;20053;-51
2023/04/08 02:28:04;;;;;;;34.70;12.25;;;;;;;;;;5055337;28;20056;-53
2023/04/08 02:30:32;;;;;;;27.88;12.00;;;;;;;;;;5048113;28;20148;-52
2023/04/08 02:33:00;;;;;;;71.93;14.52;;;;;;;;;;5056164;28;20057;-54
2023/04/08 02:35:27;;;;;;;37.13;12.55;;;;;;;;;;5064699;28;20049;-52
2023/04/08 02:37:54;;;;;;;66.57;13.60;;;;;;;;;;5058515;28;20140;-51
2023/04/08 02:40:28;;;;;;;95.53;17.50;;;;;;;;;;5070424;28;20103;-56
2023/04/08 02:42:55;;;;;;;67.32;14.95;;;;;;;;;;5068307;28;20060;-51
2023/04/08 02:45:22;;;;;;;58.97;15.90;;;;;;;;;;5080068;28;20057;-55
2023/04/08 02:47:48;;;;;;;43.00;15.45;;;;;;;;;;5065839;28;20041;-52
2023/04/08 02:50:14;;;;;;;40.88;14.80;;;;;;;;;;5053964;28;20057;-55
2023/04/08 02:52:42;;;;;;;49.55;16.88;;;;;;;;;;5054317;28;20044;-55
2023/04/08 02:55:09;;;;;;;34.95;15.20;;;;;;;;;;5068981;28;20056;-54
2023/04/08 02:57:36;;;;;;;41.58;15.35;;;;;;;;;;5053614;28;20099;-56
2023/04/08 03:00:03;;;;;;;45.45;15.50;;;;;;;;;;5049575;28;20057;-55
2023/04/08 03:02:30;;;;;;;31.67;16.75;;;;;;;;;;5046438;28;20499;-53
2023/04/08 03:04:56;;;;;;;34.28;16.52;;;;;;;;;;5050655;28;20053;-54
2023/04/08 03:07:22;;;;;;;34.97;16.73;;;;;;;;;;5058997;28;20523;-56
2023/04/08 03:09:49;;;;;;;30.98;16.40;;;;;;;;;;5067011;28;20608;-52
2023/04/08 03:12:15;;;;;;;37.53;17.10;;;;;;;;;;5068076;28;20404;-52
2023/04/08 03:14:42;;;;;;;34.97;17.00;;;;;;;;;;5066509;28;20148;-51
2023/04/08 03:17:08;;;;;;;30.25;17.40;;;;;;;;;;5064272;28;20046;-52
2023/04/08 03:19:34;;;;;;;41.60;16.35;;;;;;;;;;5046824;28;20058;-51
2023/04/08 03:22:01;;;;;;;61.83;17.48;;;;;;;;;;5062223;28;20088;-51
2023/04/08 03:24:27;;;;;;;42.42;17.20;;;;;;;;;;5073811;28;20048;-51
2023/04/08 03:26:53;;;;;;;36.42;17.33;;;;;;;;;;5060990;28;20050;-52
2023/04/08 03:29:20;;;;;;;32.95;16.55;;;;;;;;;;5060636;28;20057;-52
2023/04/08 03:31:46;;;;;;;36.30;17.25;;;;;;;;;;5052043;28;21003;-51
2023/04/08 03:34:13;;;;;;;40.50;16.70;;;;;;;;;;5084790;28;20857;-56
2023/04/08 03:36:39;;;;;;;29.23;15.27;;;;;;;;;;5085361;28;20052;-53
2023/04/08 03:39:05;;;;;;;57.45;16.15;;;;;;;;;;5059616;28;20053;-53
2023/04/08 03:41:32;;;;;;;34.88;13.20;;;;;;;;;;5062236;28;20057;-55
2023/04/08 03:43:58;;;;;;;91.43;16.70;;;;;;;;;;5048515;28;20527;-51
2023/04/08 03:46:25;;;;;;;26.45;14.02;;;;;;;;;;5065146;28;20141;-54
2023/04/08 03:48:51;;;;;;;24.60;14.23;;;;;;;;;;5063572;28;20083;-56
2023/04/08 03:51:18;;;;;;;23.23;13.43;;;;;;;;;;5079535;28;20145;-56
2023/04/08 03:53:44;;;;;;;37.65;14.52;;;;;;;;;;5060085;28;20055;-55
2023/04/08 03:56:11;;;;;;;26.55;14.10;;;;;;;;;;5067301;28;20569;-52
2023/04/08 03:58:37;;;;;;;58.97;13.73;;;;;;;;;;5050366;28;20162;-52
2023/04/08 04:01:04;;;;;;;62.13;15.52;;;;;;;;;;5046567;28;20136;-54
2023/04/08 04:03:30;;;;;;;91.80;13.75;;;;;;;;;;5049108;28;20513;-54
2023/04/08 04:05:57;;;;;;;34.80;11.95;;;;;;;;;;5046442;28;20149;-53
2023/04/08 04:08:24;;;;;;;32.83;13.50;;;;;;;;;;5060824;28;20139;-53
2023/04/08 04:10:50;;;;;;;19.42;10.65;;;;;;;;;;5061626;28;20534;-55
2023/04/08 04:13:18;;;;;;;28.63;10.35;;;;;;;;;;5065073;28;20053;-53
2023/04/08 04:15:44;;;;;;;27.80;10.43;;;;;;;;;;5049602;28;20110;-52
2023/04/08 04:18:11;;;;;;;16.65;10.43;;;;;;;;;;5062172;28;20079;-51
2023/04/08 04:20:41;;;;;;;16.13;10.05;;;;;;;;;;5056035;28;20155;-54
2023/04/08 04:23:07;;;;;;;15.43;10.77;;;;;;;;;;5055653;28;20058;-53
2023/04/08 04:25:34;;;;;;;19.20;10.25;;;;;;;;;;5045840;28;20135;-54
2023/04/08 04:28:02;;;;;;;14.93;10.35;;;;;;;;;;5055194;28;20053;-51
2023/04/08 04:30:28;;;;;;;11.98;9.95;;;;;;;;;;5044333;28;20053;-55
2023/04/08 04:32:56;;;;;;;16.25;10.73;;;;;;;;;;5060638;28;20140;-55
2023/04/08 04:35:22;;;;;;;17.15;10.73;;;;;;;;;;5063605;28;20111;-52
2023/04/08 04:37:50;;;;;;;16.52;10.98;;;;;;;;;;5047491;28;20053;-55
2023/04/08 04:40:17;;;;;;;21.95;11.02;;;;;;;;;;5048273;28;20081;-53
2023/04/08 04:42:43;;;;;;;15.98;10.35;;;;;;;;;;5061389;28;20505;-53
2023/04/08 04:45:10;;;;;;;23.60;11.70;;;;;;;;;;5062328;28;20059;-54
2023/04/08 04:47:36;;;;;;;14.68;10.88;;;;;;;;;;5055727;28;20125;-53
2023/04/08 04:50:02;;;;;;;15.88;11.55;;;;;;;;;;5046397;28;20060;-52
2023/04/08 04:52:29;;;;;;;19.02;12.15;;;;;;;;;;5059811;28;20092;-54
2023/04/08 04:54:56;;;;;;;16.40;12.02;;;;;;;;;;5060906;28;20056;-56
2023/04/08 04:57:22;;;;;;;16.70;11.73;;;;;;;;;;5065576;28;20131;-51
2023/04/08 04:59:49;;;;;;;17.92;12.45;;;;;;;;;;5068411;28;20598;-53
2023/04/08 05:02:15;;;;;;;17.00;12.27;;;;;;;;;;5064221;28;20084;-54
2023/04/08 05:04:42;;;;;;;27.70;12.98;;;;;;;;;;5068861;28;20061;-54
2023/04/08 05:07:08;;;;;;;17.15;12.15;;;;;;;;;;5057948;28;20049;-54
2023/04/08 05:09:35;;;;;;;17.00;12.23;;;;;;;;;;5072541;28;20064;-54
2023/04/08 05:12:01;;;;;;;17.60;12.50;;;;;;;;;;5065872;28;20176;-55
2023/04/08 05:14:28;;;;;;;15.85;10.73;;;;;;;;;;5079053;28;20052;-54
2023/04/08 05:16:55;;;;;;;17.25;12.02;;;;;;;;;;5057597;28;20144;-55
2023/04/08 05:19:21;;;;;;;17.20;12.60;;;;;;;;;;5059174;28;20064;-54
2023/04/08 05:21:48;;;;;;;16.25;11.95;;;;;;;;;;5071446;28;20130;-56
2023/04/08 05:24:14;;;;;;;14.70;11.40;;;;;;;;;;5070731;28;20053;-56
2023/04/08 05:26:40;;;;;;;15.32;11.18;;;;;;;;;;5048544;28;20053;-54
2023/04/08 05:29:07;;;;;;;13.75;10.93;;;;;;;;;;5047982;28;20063;-55
2023/04/08 05:31:33;;;;;;;14.18;10.65;;;;;;;;;;5053788;28;20140;-55
2023/04/08 05:34:00;;;;;;;16.65;10.18;;;;;;;;;;5053224;28;20085;-56
2023/04/08 05:36:26;;;;;;;13.73;10.30;;;;;;;;;;5048805;28;20090;-57
2023/04/08 05:38:53;;;;;;;14.20;11.00;;;;;;;;;;5073968;28;20053;-56
2023/04/08 05:41:20;;;;;;;14.35;10.23;;;;;;;;;;5081461;28;20056;-55
2023/04/08 05:43:46;;;;;;;14.63;10.80;;;;;;;;;;5087874;28;20098;-55
2023/04/08 05:46:12;;;;;;;15.65;11.15;;;;;;;;;;5066918;28;20053;-53
2023/04/08 05:48:39;;;;;;;14.40;10.75;;;;;;;;;;5049893;28;20562;-56
2023/04/08 05:51:05;;;;;;;19.38;11.65;;;;;;;;;;5050232;28;20156;-57
2023/04/08 05:53:32;;;;;;;14.60;10.77;;;;;;;;;;5075719;28;20540;-53
2023/04/08 05:55:58;;;;;;;14.20;11.18;;;;;;;;;;5067806;28;20056;-56
2023/04/08 05:58:25;;;;;;;17.05;10.85;;;;;;;;;;5068065;28;20467;-54
2023/04/08 06:00:51;;;;;;;14.70;11.65;;;;;;;;;;5059520;28;20057;-57
2023/04/08 06:03:17;;;;;;;16.45;11.45;;;;;;;;;;5049463;28;20494;-55
2023/04/08 06:05:46;;;;;;;16.58;11.88;;;;;;;;;;5064067;28;20053;-53
2023/04/08 06:08:12;;;;;;;15.73;11.93;;;;;;;;;;5074510;28;20049;-52
2023/04/08 06:10:39;;;;;;;14.65;12.55;;;;;;;;;;5059035;28;20090;-54
2023/04/08 06:13:05;;;;;;;18.65;12.52;;;;;;;;;;5054145;28;20053;-57
2023/04/08 06:15:31;;;;;;;16.58;11.95;;;;;;;;;;5063640;28;20044;-55
2023/04/08 06:17:58;;;;;;;15.73;12.57;;;;;;;;;;5053592;28;20062;-56
2023/04/08 06:20:25;;;;;;;15.88;11.23;;;;;;;;;;5068000;28;20060;-54
2023/04/08 06:22:52;;;;;;;16.63;12.43;;;;;;;;;;5071407;28;20057;-55
2023/04/08 06:25:18;;;;;;;14.27;12.07;;;;;;;;;;5055483;28;20068;-55
2023/04/08 06:27:44;;;;;;;15.23;12.52;;;;;;;;;;5048805;28;20506;-52
2023/04/08 06:30:11;;;;;;;14.75;12.13;;;;;;;;;;5072912;28;20144;-55
2023/04/08 06:32:37;;;;;;;16.27;12.60;;;;;;;;;;5055161;28;20834;-53
2023/04/08 06:35:04;;;;;;;18.63;12.80;;;;;;;;;;5070650;28;20049;-53
2023/04/08 06:37:30;;;;;;;19.08;11.73;;;;;;;;;;5059962;28;20229;-53
2023/04/08 06:39:57;;;;;;;16.25;12.00;;;;;;;;;;5058871;28;20122;-53
2023/04/08 06:42:23;;;;;;;19.05;11.35;;;;;;;;;;5063138;28;20054;-54
2023/04/08 06:44:49;;;;;;;15.38;11.85;;;;;;;;;;5053289;28;20060;-52
2023/04/08 06:47:16;;;;;;;17.17;12.18;;;;;;;;;;5068119;28;20111;-54
2023/04/08 06:49:42;;;;;;;16.02;12.18;;;;;;;;;;5066379;28;20507;-55
2023/04/08 06:52:08;;;;;;;18.08;12.70;;;;;;;;;;5066846;28;20179;-50
2023/04/08 06:54:35;;;;;;;17.33;12.00;;;;;;;;;;5051062;28;20054;-54
2023/04/08 06:57:03;;;;;;;18.67;12.18;;;;;;;;;;5047252;28;20049;-53
2023/04/08 06:59:29;;;;;;;21.95;11.65;;;;;;;;;;5066488;28;20057;-52
2023/04/08 07:01:55;;;;;;;14.13;10.85;;;;;;;;;;5062135;28;20432;-55
2023/04/08 07:04:22;;;;;;;16.30;11.98;;;;;;;;;;5068690;28;20057;-56
2023/04/08 07:06:49;;;;;;;14.75;11.43;;;;;;;;;;5055273;28;20162;-54
2023/04/08 07:09:15;;;;;;;13.77;10.90;;;;;;;;;;5064657;28;20083;-53
2023/04/08 07:11:41;;;;;;;14.48;11.02;;;;;;;;;;5057793;28;20111;-52
2023/04/08 07:14:08;;;;;;;17.65;10.80;;;;;;;;;;5055020;28;20639;-55
2023/04/08 07:16:34;;;;;;;15.35;10.43;;;;;;;;;;5065502;28;20084;-55
2023/04/08 07:19:00;;;;;;;13.35;10.25;;;;;;;;;;5057146;28;20049;-54
2023/04/08 07:21:27;;;;;;;15.70;10.80;;;;;;;;;;5061440;28;20049;-53
2023/04/08 07:23:54;;;;;;;12.50;10.30;;;;;;;;;;5067470;28;20053;-53
2023/04/08 07:26:21;;;;;;;14.88;10.40;;;;;;;;;;5067117;28;20053;-53
2023/04/08 07:28:47;;;;;;;14.10;10.95;;;;;;;;;;5059709;28;20140;-54
2023/04/08 07:31:15;;;;;;;16.88;10.20;;;;;;;;;;5061174;28;20060;-53
2023/04/08 07:33:41;;;;;;;14.15;9.80;;;;;;;;;;5061962;28;20083;-53
2023/04/08 07:36:08;;;;;;;12.50;10.23;;;;;;;;;;5063783;28;20052;-57
2023/04/08 07:38:35;;;;;;;14.75;11.18;;;;;;;;;;5072241;28;20574;-54
2023/04/08 07:41:01;;;;;;;13.02;9.75;;;;;;;;;;5066487;28;20577;-54
2023/04/08 07:43:29;;;;;;;14.10;9.55;;;;;;;;;;5066607;28;20057;-55
2023/04/08 07:46:01;;;;;;;13.20;10.43;;;;;;;;;;5054755;28;20049;-50
2023/04/08 07:48:29;;;;;;;14.50;10.77;;;;;;;;;;5059855;28;20145;-56
2023/04/08 07:50:55;;;;;;;14.38;10.02;;;;;;;;;;5055846;28;20091;-53
2023/04/08 07:53:35;;;;;;;12.13;9.93;;;;;;;;;;5067952;28;20144;-56
2023/04/08 07:56:04;;;;;;;13.57;10.13;;;;;;;;;;5061024;28;20054;-54
2023/04/08 07:58:31;;;;;;;16.10;10.63;;;;;;;;;;5062353;28;20141;-56
2023/04/08 08:00:58;;;;;;;11.85;9.15;;;;;;;;;;5070257;28;20495;-53
2023/04/08 08:03:25;;;;;;;13.73;9.90;;;;;;;;;;5066940;28;20052;-55
2023/04/08 08:05:51;;;;;;;14.70;10.73;;;;;;;;;;5055041;28;20060;-56
2023/04/08 08:08:18;;;;;;;14.15;10.35;;;;;;;;;;5068256;28;20542;-54
2023/04/08 08:10:44;;;;;;;14.07;10.63;;;;;;;;;;5067774;28;20067;-55
2023/04/08 08:13:13;;;;;;;14.70;10.77;;;;;;;;;;5061790;28;20053;-56
2023/04/08 08:15:40;;;;;;;14.25;11.80;;;;;;;;;;5072956;28;20128;-54
2023/04/08 08:18:06;;;;;;;20.60;16.73;;;;;;;;;;5076060;28;20053;-53
2023/04/08 08:20:34;;;;;;;31.00;22.40;;;;;;;;;;5058878;28;20140;-57
2023/04/08 08:23:01;;;;;;;30.45;23.73;;;;;;;;;;5061037;28;20060;-54
2023/04/08 08:25:27;;;;;;;30.42;23.17;;;;;;;;;;5066278;28;20053;-53
2023/04/08 08:27:54;;;;;;;25.65;19.35;;;;;;;;;;5061554;28;20049;-56
2023/04/08 08:30:21;;;;;;;23.00;16.33;;;;;;;;;;5065093;28;20059;-52
2023/04/08 08:32:47;;;;;;;16.90;13.43;;;;;;;;;;5065649;28;20378;-54
2023/04/08 08:35:14;;;;;;;16.00;11.77;;;;;;;;;;5065054;28;20120;-58
2023/04/08 08:37:40;;;;;;;13.70;10.25;;;;;;;;;;5062301;28;20575;-54
2023/04/08 08:40:07;;;;;;;14.10;9.93;;;;;;;;;;5059414;28;20086;-56
2023/04/08 08:42:34;;;;;;;11.35;9.25;;;;;;;;;;5064717;28;20064;-54
2023/04/08 08:45:01;;;;;;;17.20;10.65;;;;;;;;;;5065181;28;20503;-52
2023/04/08 08:47:27;;;;;;;12.75;9.88;;;;;;;;;;5063415;28;20113;-53
2023/04/08 08:49:54;;;;;;;13.05;10.30;;;;;;;;;;5057340;28;20096;-50
2023/04/08 08:52:20;;;;;;;13.25;10.60;;;;;;;;;;5077682;28;20497;-54
2023/04/08 08:54:47;;;;;;;11.77;9.82;;;;;;;;;;5083235;28;20573;-53
2023/04/08 08:57:17;;;;;;;14.38;10.63;;;;;;;;;;5065545;28;20495;-55
2023/04/08 08:59:46;;;;;;;15.55;11.25;;;;;;;;;;5065564;28;20583;-54
2023/04/08 09:02:27;;;;;;;14.20;11.32;;;;;;;;;;5065136;28;20057;-55
2023/04/08 09:04:57;;;;;;;14.40;10.85;;;;;;;;;;5065900;28;20049;-54
2023/04/08 09:07:28;;;;;;;14.50;10.85;;;;;;;;;;5071910;28;20542;-54
2023/04/08 09:09:55;;;;;;;14.25;10.30;;;;;;;;;;5086088;28;20147;-53
2023/04/08 09:12:22;;;;;;;13.10;10.18;;;;;;;;;;5085529;28;20143;-54
2023/04/08 09:14:49;;;;;;;14.82;11.18;;;;;;;;;;5085436;28;20507;-55
2023/04/08 09:17:16;;;;;;;14.27;11.18;;;;;;;;;;5085832;28;20055;-57
2023/04/08 09:20:02;;;;;;;14.30;9.98;;;;;;;;;;5064511;28;20057;-55
2023/04/08 09:22:29;;;;;;;13.48;9.93;;;;;;;;;;5051365;28;20365;-54
2023/04/08 09:24:56;;;;;;;14.60;10.48;;;;;;;;;;5050737;28;20144;-56
2023/04/08 09:27:35;;;;;;;12.05;9.40;;;;;;;;;;5045155;28;20050;-57
2023/04/08 09:30:14;;;;;;;18.20;10.30;;;;;;;;;;5059046;28;20053;-56
2023/04/08 09:32:50;;;;;;;16.95;10.38;;;;;;;;;;5066517;28;20053;-52
2023/04/08 09:35:17;;;;;;;12.52;10.20;;;;;;;;;;5057628;28;20053;-51
2023/04/08 09:37:44;;;;;;;13.32;9.55;;;;;;;;;;5044998;28;20070;-50
2023/04/08 09:40:11;;;;;;;13.82;10.20;;;;;;;;;;5043767;28;20565;-51
2023/04/08 09:42:40;;;;;;;11.13;8.98;;;;;;;;;;5049082;28;20056;-55
2023/04/08 09:45:07;;;;;;;12.20;9.30;;;;;;;;;;5064338;28;20427;-55
2023/04/08 09:47:41;;;;;;;12.32;9.55;;;;;;;;;;5063559;28;20080;-53
2023/04/08 09:50:08;;;;;;;15.18;9.95;;;;;;;;;;5062995;28;20111;-55
2023/04/08 09:52:44;;;;;;;12.90;9.90;;;;;;;;;;5046174;28;20059;-52
2023/04/08 09:55:11;;;;;;;16.85;10.25;;;;;;;;;;5059162;28;20056;-51
2023/04/08 09:57:43;;;;;;;16.67;10.10;;;;;;;;;;5060566;28;20148;-54
2023/04/08 10:00:13;;;;;;;14.45;9.30;;;;;;;;;;5050045;28;20057;-53
2023/04/08 10:03:00;;;;;;;13.20;10.02;;;;;;;;;;5051510;28;20056;-54
2023/04/08 10:05:27;;;;;;;14.27;9.95;;;;;;;;;;5079487;28;20053;-54
2023/04/08 10:07:57;;;;;;;11.93;9.15;;;;;;;;;;5086054;28;20056;-55
2023/04/08 10:10:25;;;;;;;14.38;10.05;;;;;;;;;;5066751;28;20088;-54
2023/04/08 10:12:51;;;;;;;11.55;9.25;;;;;;;;;;5066846;28;20061;-55
2023/04/08 10:15:21;;;;;;;16.92;9.98;;;;;;;;;;5067976;28;20187;-55
2023/04/08 10:17:48;;;;;;;14.13;9.90;;;;;;;;;;5067758;28;20524;-54
2023/04/08 10:20:32;;;;;;;13.40;9.52;;;;;;;;;;5071985;28;20053;-56
2023/04/08 10:22:59;;;;;;;13.02;8.75;;;;;;;;;;5088048;28;20048;-63
2023/04/08 10:25:32;;;;;;;11.40;9.70;;;;;;;;;;5065774;28;20079;-55
2023/04/08 10:28:11;;;;;;;9.73;8.13;;;;;;;;;;5068624;28;20106;-52
2023/04/08 10:30:37;;;;;;;10.93;8.85;;;;;;;;;;5067478;28;20053;-56
2023/04/08 10:33:09;;;;;;;14.23;8.90;;;;;;;;;;5067909;28;20045;-57
2023/04/08 10:35:35;;;;;;;11.98;8.63;;;;;;;;;;5071575;28;20048;-54
2023/04/08 10:38:02;;;;;;;15.20;9.50;;;;;;;;;;5087687;28;20062;-57
2023/04/08 10:40:35;;;;;;;14.77;8.18;;;;;;;;;;5072795;28;20054;-57
2023/04/08 10:43:01;;;;;;;9.95;8.05;;;;;;;;;;5058541;28;20049;-52
2023/04/08 10:45:27;;;;;;;12.82;8.23;;;;;;;;;;5066098;28;20514;-57
2023/04/08 10:47:54;;;;;;;9.85;7.78;;;;;;;;;;5068221;28;20060;-56
2023/04/08 10:50:22;;;;;;;10.35;6.90;;;;;;;;;;5065113;28;20126;-56
2023/04/08 10:52:49;;;;;;;9.52;7.00;;;;;;;;;;5060436;28;20052;-56
2023/04/08 10:55:21;;;;;;;23.52;8.02;;;;;;;;;;5062769;28;20053;-55
2023/04/08 10:57:47;;;;;;;10.65;7.93;;;;;;;;;;5062685;28;20375;-57
2023/04/08 11:00:17;;;;;;;10.00;6.95;;;;;;;;;;5054688;28;20049;-57
2023/04/08 11:02:43;;;;;;;9.68;7.47;;;;;;;;;;5048337;28;20077;-55
2023/04/08 11:05:11;;;;;;;10.13;7.97;;;;;;;;;;5071880;28;20055;-56
2023/04/08 11:07:40;;;;;;;9.98;7.45;;;;;;;;;;5087902;28;20783;-56
2023/04/08 11:10:10;;;;;;;12.23;7.55;;;;;;;;;;5083954;28;20059;-57
2023/04/08 11:12:37;;;;;;;9.82;6.80;;;;;;;;;;5083566;28;20399;-56
2023/04/08 11:15:04;;;;;;;10.23;6.75;;;;;;;;;;5056245;28;20057;-56
2023/04/08 11:17:33;;;;;;;8.95;6.75;;;;;;;;;;5070997;28;20054;-57
2023/04/08 11:20:02;;;;;;;8.05;6.35;;;;;;;;;;5056894;28;20531;-54
2023/04/08 11:22:32;;;;;;;12.13;6.63;;;;;;;;;;5061395;28;20058;-56
2023/04/08 11:24:59;;;;;;;8.32;6.60;;;;;;;;;;5047303;28;20053;-54
2023/04/08 11:27:26;;;;;;;9.73;7.13;;;;;;;;;;5047529;28;20057;-57
2023/04/08 11:29:55;;;;;;;8.77;7.00;;;;;;;;;;5065434;28;20053;-55
2023/04/08 11:32:22;;;;;;;9.88;7.30;;;;;;;;;;5068780;28;20509;-55
2023/04/08 11:34:48;;;;;;;7.63;6.05;;;;;;;;;;5065882;28;20541;-57
2023/04/08 11:37:15;;;;;;;11.38;7.00;;;;;;;;;;5080855;28;20115;-55
2023/04/08 11:39:41;;;;;;;11.23;6.90;;;;;;;;;;5061237;28;20057;-55
2023/04/08 11:42:08;;;;;;;9.60;7.20;;;;;;;;;;5061009;28;20494;-55
2023/04/08 11:44:34;;;;;;;9.98;7.03;;;;;;;;;;5046438;28;20065;-57
2023/04/08 11:47:01;;;;;;;8.32;7.03;;;;;;;;;;5054384;28;20055;-55
2023/04/08 11:49:42;;;;;;;9.45;6.90;;;;;;;;;;5065986;28;20056;-54
2023/04/08 11:52:08;;;;;;;10.50;7.13;;;;;;;;;;5065673;28;20064;-54
2023/04/08 11:54:39;;;;;;;10.32;7.38;;;;;;;;;;5073446;28;20501;-56
2023/04/08 11:57:06;;;;;;;9.30;7.65;;;;;;;;;;5070966;28;20057;-53
2023/04/08 11:59:32;;;;;;;9.75;7.43;;;;;;;;;;5062622;28;20052;-56
2023/04/08 12:01:59;;;;;;;11.77;7.95;;;;;;;;;;5064011;28;20135;-56
2023/04/08 12:04:25;;;;;;;10.88;7.45;;;;;;;;;;5064399;28;20141;-57
2023/04/08 12:06:52;;;;;;;10.88;7.63;;;;;;;;;;5063440;28;20065;-55
2023/04/08 12:09:18;;;;;;;8.50;7.20;;;;;;;;;;5066945;28;20067;-56
2023/04/08 12:11:44;;;;;;;11.02;8.10;;;;;;;;;;5071085;28;20146;-57
2023/04/08 12:14:11;;;;;;;10.65;7.22;;;;;;;;;;5086717;28;20048;-56
2023/04/08 12:16:37;;;;;;;10.18;8.07;;;;;;;;;;5083223;28;20056;-57
2023/04/08 12:19:03;;;;;;;9.88;7.82;;;;;;;;;;5054907;28;20061;-58
2023/04/08 12:21:31;;;;;;;10.05;7.97;;;;;;;;;;5076338;28;20067;-57
2023/04/08 12:23:57;;;;;;;10.63;7.35;;;;;;;;;;5076795;28;20052;-57
2023/04/08 12:26:24;;;;;;;10.25;7.53;;;;;;;;;;5065338;28;20052;-55
2023/04/08 12:28:50;;;;;;;10.65;7.85;;;;;;;;;;5062621;28;20053;-56
2023/04/08 12:31:16;;;;;;;9.70;6.75;;;;;;;;;;5066772;28;20140;-55
2023/04/08 12:33:43;;;;;;;9.80;7.78;;;;;;;;;;5064857;28;20045;-56
2023/04/08 12:36:09;;;;;;;9.43;7.50;;;;;;;;;;5066520;28;20060;-53
2023/04/08 12:38:39;;;;;;;9.60;7.57;;;;;;;;;;5063435;28;20063;-55
2023/04/08 12:41:06;;;;;;;10.85;8.05;;;;;;;;;;5075045;28;20593;-53
2023/04/08 12:43:33;;;;;;;8.63;7.72;;;;;;;;;;5051270;28;20533;-56
2023/04/08 12:46:00;;;;;;;11.95;8.32;;;;;;;;;;5047835;28;20602;-56
2023/04/08 12:48:27;;;;;;;11.55;8.25;;;;;;;;;;5045824;28;20050;-54
2023/04/08 12:50:53;;;;;;;10.88;7.97;;;;;;;;;;5075612;28;20059;-55
2023/04/08 12:53:19;;;;;;;11.43;8.10;;;;;;;;;;5085837;28;20059;-56
2023/04/08 12:55:46;;;;;;;10.80;7.82;;;;;;;;;;5072423;28;20515;-54
2023/04/08 12:58:15;;;;;;;9.00;7.65;;;;;;;;;;5066271;28;20049;-57
2023/04/08 13:00:45;;;;;;;8.50;7.18;;;;;;;;;;5064570;28;20061;-58
2023/04/08 13:03:14;;;;;;;8.65;7.75;;;;;;;;;;5064909;28;20171;-56
2023/04/08 13:05:41;;;;;;;18.05;8.48;;;;;;;;;;5063321;28;20594;-58
2023/04/08 13:08:10;;;;;;;12.60;7.90;;;;;;;;;;5065139;28;20049;-55
2023/04/08 13:10:37;;;;;;;7.93;6.72;;;;;;;;;;5066209;28;20053;-58
2023/04/08 13:13:03;;;;;;;9.23;7.93;;;;;;;;;;5064477;28;20550;-55
2023/04/08 13:15:30;;;;;;;10.10;7.78;;;;;;;;;;5061599;28;20057;-57
2023/04/08 13:17:56;;;;;;;9.07;7.47;;;;;;;;;;5066291;28;20503;-56
2023/04/08 13:20:24;;;;;;;10.40;7.38;;;;;;;;;;5060541;28;20427;-55
2023/04/08 13:22:51;;;;;;;8.90;7.18;;;;;;;;;;5070408;28;20056;-56
2023/04/08 13:25:18;;;;;;;8.63;7.57;;;;;;;;;;5077460;28;20528;-57
2023/04/08 13:27:44;;;;;;;9.15;7.88;;;;;;;;;;5076176;28;20053;-56
2023/04/08 13:30:11;;;;;;;7.97;6.72;;;;;;;;;;5069004;28;20507;-57
2023/04/08 13:32:37;;;;;;;9.38;7.50;;;;;;;;;;5059743;28;20139;-55
2023/04/08 13:35:04;;;;;;;8.30;7.15;;;;;;;;;;5067155;28;20053;-59
2023/04/08 13:37:31;;;;;;;9.82;7.40;;;;;;;;;;5068589;28;20143;-57
2023/04/08 13:39:57;;;;;;;9.38;7.32;;;;;;;;;;5069261;28;20063;-57
2023/04/08 13:42:23;;;;;;;7.50;6.70;;;;;;;;;;5068447;28;20140;-56
2023/04/08 13:44:50;;;;;;;8.15;7.03;;;;;;;;;;5067338;28;20159;-57
2023/04/08 13:47:16;;;;;;;12.27;7.05;;;;;;;;;;5073547;28;20593;-57
2023/04/08 13:49:43;;;;;;;9.80;7.40;;;;;;;;;;5066102;28;20500;-54
2023/04/08 13:52:10;;;;;;;10.00;7.68;;;;;;;;;;5066050;28;20060;-57
2023/04/08 13:54:36;;;;;;;9.15;7.65;;;;;;;;;;5068334;28;20053;-58
2023/04/08 13:57:03;;;;;;;9.93;7.03;;;;;;;;;;5067548;28;20130;-58
2023/04/08 13:59:29;;;;;;;9.70;7.63;;;;;;;;;;5063612;28;20503;-56
2023/04/08 14:01:55;;;;;;;9.43;7.10;;;;;;;;;;5063881;28;20050;-59
2023/04/08 14:04:22;;;;;;;10.82;7.43;;;;;;;;;;5053410;28;20110;-56
2023/04/08 14:06:50;;;;;;;13.63;7.53;;;;;;;;;;5064689;28;20124;-56
2023/04/08 14:09:16;;;;;;;10.43;6.97;;;;;;;;;;5068414;28;20064;-53
2023/04/08 14:11:43;;;;;;;10.48;7.38;;;;;;;;;;5068120;28;20160;-55
2023/04/08 14:14:09;;;;;;;9.68;7.40;;;;;;;;;;5055339;28;20141;-58
2023/04/08 14:16:35;;;;;;;9.35;7.75;;;;;;;;;;5048873;28;20100;-56
2023/04/08 14:19:03;;;;;;;8.18;6.88;;;;;;;;;;5088562;28;20084;-55
2023/04/08 14:21:33;;;;;;;10.70;7.50;;;;;;;;;;5087794;28;20063;-55
2023/04/08 14:23:59;;;;;;;15.02;10.18;;;;;;;;;;5088575;28;20053;-57